sensor_id;sensor_type;location;lat;lon;timestamp;pressure;altitude;pressure_sealevel;temperature;humidity
43820;BME280;67762;52.476;6.046;2023-03-19T00:03:32;101017.66;;;11.77;74.99
43820;BME280;67762;52.476;6.046;2023-03-19T00:05:58;101011.94;;;11.72;75.76
43820;BME280;67762;52.476;6.046;2023-03-19T00:08:24;101021.66;;;11.73;75.14
43820;BME280;67762;52.476;6.046;2023-03-19T00:11:09;101027.84;;;11.73;75.60
43820;BME280;67762;52.476;6.046;2023-03-19T00:13:35;101023.81;;;11.69;75.49
43820;BME280;67762;52.476;6.046;2023-03-19T00:16:01;101025.97;;;11.66;74.79
43820;BME280;67762;52.476;6.046;2023-03-19T00:18:26;101023.44;;;11.64;75.54
43820;BME280;67762;52.476;6.046;2023-03-19T00:20:52;101026.13;;;11.64;75.59
43820;BME280;67762;52.476;6.046;2023-03-19T00:23:18;101029.97;;;11.62;75.63
43820;BME280;67762;52.476;6.046;2023-03-19T00:25:44;101025.94;;;11.58;76.26
43820;BME280;67762;52.476;6.046;2023-03-19T00:28:09;101034.31;;;11.55;76.05
43820;BME280;67762;52.476;6.046;2023-03-19T00:30:36;101025.94;;;11.50;76.72
43820;BME280;67762;52.476;6.046;2023-03-19T00:33:02;101025.09;;;11.41;76.03
43820;BME280;67762;52.476;6.046;2023-03-19T00:35:27;101033.09;;;11.33;76.87
43820;BME280;67762;52.476;6.046;2023-03-19T00:37:53;101040.75;;;11.28;77.30
43820;BME280;67762;52.476;6.046;2023-03-19T00:40:19;101035.25;;;11.22;77.39
43820;BME280;67762;52.476;6.046;2023-03-19T00:42:46;101030.88;;;11.12;78.52
43820;BME280;67762;52.476;6.046;2023-03-19T00:45:11;101029.84;;;11.05;78.61
43820;BME280;67762;52.476;6.046;2023-03-19T00:47:37;101031.34;;;11.00;79.37
43820;BME280;67762;52.476;6.046;2023-03-19T00:50:04;101039.50;;;10.98;79.89
43820;BME280;67762;52.476;6.046;2023-03-19T00:52:32;101038.47;;;10.91;80.22
43820;BME280;67762;52.476;6.046;2023-03-19T00:54:58;101029.28;;;10.86;80.31
43820;BME280;67762;52.476;6.046;2023-03-19T00:57:23;101038.13;;;10.86;81.14
43820;BME280;67762;52.476;6.046;2023-03-19T00:59:49;101029.63;;;10.83;81.62
43820;BME280;67762;52.476;6.046;2023-03-19T01:02:15;101032.75;;;10.78;81.68
43820;BME280;67762;52.476;6.046;2023-03-19T01:04:41;101029.75;;;10.73;81.54
43820;BME280;67762;52.476;6.046;2023-03-19T01:07:07;101039.56;;;10.73;82.50
43820;BME280;67762;52.476;6.046;2023-03-19T01:09:33;101044.91;;;10.73;82.20
43820;BME280;67762;52.476;6.046;2023-03-19T01:12:01;101039.75;;;10.71;82.84
43820;BME280;67762;52.476;6.046;2023-03-19T01:14:30;101039.22;;;10.68;82.73
43820;BME280;67762;52.476;6.046;2023-03-19T01:16:56;101042.06;;;10.66;82.67
43820;BME280;67762;52.476;6.046;2023-03-19T01:19:22;101035.88;;;10.66;83.03
43820;BME280;67762;52.476;6.046;2023-03-19T01:21:47;101035.34;;;10.62;83.55
43820;BME280;67762;52.476;6.046;2023-03-19T01:24:18;101042.69;;;10.60;83.29
43820;BME280;67762;52.476;6.046;2023-03-19T01:26:47;101037.34;;;10.60;83.58
43820;BME280;67762;52.476;6.046;2023-03-19T01:29:19;101040.34;;;10.57;83.38
43820;BME280;67762;52.476;6.046;2023-03-19T01:31:45;101031.81;;;10.53;83.65
43820;BME280;67762;52.476;6.046;2023-03-19T01:34:29;101033.50;;;10.54;83.97
43820;BME280;67762;52.476;6.046;2023-03-19T01:37:01;101039.16;;;10.51;84.10
43820;BME280;67762;52.476;6.046;2023-03-19T01:39:31;101037.47;;;10.50;84.14
43820;BME280;67762;52.476;6.046;2023-03-19T01:42:00;101033.81;;;10.51;84.09
43820;BME280;67762;52.476;6.046;2023-03-19T01:44:46;101031.13;;;10.51;84.41
43820;BME280;67762;52.476;6.046;2023-03-19T01:47:47;101034.47;;;10.53;84.19
43820;BME280;67762;52.476;6.046;2023-03-19T01:50:27;101029.81;;;10.55;84.29
43820;BME280;67762;52.476;6.046;2023-03-19T01:53:14;101026.16;;;10.56;84.49
43820;BME280;67762;52.476;6.046;2023-03-19T01:55:54;101027.31;;;10.54;84.09
43820;BME280;67762;52.476;6.046;2023-03-19T01:58:33;101028.78;;;10.48;83.95
43820;BME280;67762;52.476;6.046;2023-03-19T02:01:18;101031.75;;;10.45;84.33
43820;BME280;67762;52.476;6.046;2023-03-19T02:03:49;101025.75;;;10.43;84.63
43820;BME280;67762;52.476;6.046;2023-03-19T02:06:19;101024.06;;;10.42;84.48
43820;BME280;67762;52.476;6.046;2023-03-19T02:08:46;101028.25;;;10.45;84.21
43820;BME280;67762;52.476;6.046;2023-03-19T02:11:13;101030.41;;;10.41;84.74
43820;BME280;67762;52.476;6.046;2023-03-19T02:13:39;101037.06;;;10.37;84.89
43820;BME280;67762;52.476;6.046;2023-03-19T02:16:05;101033.00;;;10.33;84.90
43820;BME280;67762;52.476;6.046;2023-03-19T02:18:31;101036.16;;;10.29;84.80
43820;BME280;67762;52.476;6.046;2023-03-19T02:21:14;101037.47;;;10.25;84.59
43820;BME280;67762;52.476;6.046;2023-03-19T02:26:19;101041.97;;;10.07;84.62
43820;BME280;67762;52.476;6.046;2023-03-19T02:28:50;101049.75;;;10.00;84.93
43820;BME280;67762;52.476;6.046;2023-03-19T02:31:22;101044.72;;;9.97;85.18
43820;BME280;67762;52.476;6.046;2023-03-19T02:34:04;101044.91;;;9.95;85.28
43820;BME280;67762;52.476;6.046;2023-03-19T02:36:36;101050.72;;;9.91;85.40
43820;BME280;67762;52.476;6.046;2023-03-19T02:39:07;101045.81;;;9.86;85.56
43820;BME280;67762;52.476;6.046;2023-03-19T02:41:36;101047.94;;;9.83;85.70
43820;BME280;67762;52.476;6.046;2023-03-19T02:44:06;101049.81;;;9.82;85.78
43820;BME280;67762;52.476;6.046;2023-03-19T02:46:34;101054.59;;;9.79;85.74
43820;BME280;67762;52.476;6.046;2023-03-19T02:48:59;101052.00;;;9.87;85.67
43820;BME280;67762;52.476;6.046;2023-03-19T02:51:25;101057.38;;;9.95;86.05
43820;BME280;67762;52.476;6.046;2023-03-19T02:53:51;101042.38;;;9.94;86.09
43820;BME280;67762;52.476;6.046;2023-03-19T02:56:17;101050.16;;;9.87;86.07
43820;BME280;67762;52.476;6.046;2023-03-19T02:58:42;101053.28;;;9.83;86.14
43820;BME280;67762;52.476;6.046;2023-03-19T03:01:08;101050.09;;;9.79;86.48
43820;BME280;67762;52.476;6.046;2023-03-19T03:03:33;101047.75;;;9.76;86.25
43820;BME280;67762;52.476;6.046;2023-03-19T03:05:59;101054.59;;;9.79;86.44
43820;BME280;67762;52.476;6.046;2023-03-19T03:08:25;101058.41;;;9.76;86.18
43820;BME280;67762;52.476;6.046;2023-03-19T03:10:52;101058.09;;;9.79;86.37
43820;BME280;67762;52.476;6.046;2023-03-19T03:13:18;101058.59;;;9.83;86.43
43820;BME280;67762;52.476;6.046;2023-03-19T03:15:43;101063.50;;;9.87;86.45
43820;BME280;67762;52.476;6.046;2023-03-19T03:18:09;101069.19;;;9.92;86.33
43820;BME280;67762;52.476;6.046;2023-03-19T03:20:34;101065.06;;;9.98;86.52
43820;BME280;67762;52.476;6.046;2023-03-19T03:23:00;101074.44;;;10.02;86.20
43820;BME280;67762;52.476;6.046;2023-03-19T03:25:26;101072.47;;;10.04;86.57
43820;BME280;67762;52.476;6.046;2023-03-19T03:27:54;101075.81;;;10.06;86.48
43820;BME280;67762;52.476;6.046;2023-03-19T03:30:19;101079.31;;;10.07;86.19
43820;BME280;67762;52.476;6.046;2023-03-19T03:32:45;101072.28;;;10.06;86.59
43820;BME280;67762;52.476;6.046;2023-03-19T03:35:11;101072.16;;;10.07;85.99
43820;BME280;67762;52.476;6.046;2023-03-19T03:37:37;101074.34;;;10.12;86.03
43820;BME280;67762;52.476;6.046;2023-03-19T03:40:05;101061.56;;;10.15;86.03
43820;BME280;67762;52.476;6.046;2023-03-19T03:42:34;101075.59;;;10.17;86.08
43820;BME280;67762;52.476;6.046;2023-03-19T03:45:01;101074.75;;;10.17;86.08
43820;BME280;67762;52.476;6.046;2023-03-19T03:47:27;101081.91;;;10.16;86.02
43820;BME280;67762;52.476;6.046;2023-03-19T03:49:53;101076.75;;;10.15;86.18
43820;BME280;67762;52.476;6.046;2023-03-19T03:52:18;101081.50;;;10.11;86.00
43820;BME280;67762;52.476;6.046;2023-03-19T03:54:44;101078.63;;;10.05;85.85
43820;BME280;67762;52.476;6.046;2023-03-19T03:57:09;101094.41;;;9.98;86.16
43820;BME280;67762;52.476;6.046;2023-03-19T03:59:36;101080.84;;;9.91;86.03
43820;BME280;67762;52.476;6.046;2023-03-19T04:02:02;101089.06;;;9.80;86.08
43820;BME280;67762;52.476;6.046;2023-03-19T04:04:28;101083.66;;;9.72;86.11
43820;BME280;67762;52.476;6.046;2023-03-19T04:06:54;101094.78;;;9.68;86.24
43820;BME280;67762;52.476;6.046;2023-03-19T04:09:49;101086.13;;;9.66;86.29
43820;BME280;67762;52.476;6.046;2023-03-19T04:12:15;101090.75;;;9.64;86.12
43820;BME280;67762;52.476;6.046;2023-03-19T04:14:41;101093.41;;;9.64;86.36
43820;BME280;67762;52.476;6.046;2023-03-19T04:17:08;101097.59;;;9.66;86.30
43820;BME280;67762;52.476;6.046;2023-03-19T04:19:33;101089.75;;;9.65;86.45
43820;BME280;67762;52.476;6.046;2023-03-19T04:22:00;101095.31;;;9.54;86.30
43820;BME280;67762;52.476;6.046;2023-03-19T04:24:30;101093.84;;;9.41;86.33
43820;BME280;67762;52.476;6.046;2023-03-19T04:26:58;101091.56;;;9.29;86.68
43820;BME280;67762;52.476;6.046;2023-03-19T04:29:24;101083.09;;;9.16;86.86
43820;BME280;67762;52.476;6.046;2023-03-19T04:31:50;101093.78;;;9.06;86.94
43820;BME280;67762;52.476;6.046;2023-03-19T04:34:16;101094.06;;;9.03;87.14
43820;BME280;67762;52.476;6.046;2023-03-19T04:36:42;101096.31;;;9.08;86.70
43820;BME280;67762;52.476;6.046;2023-03-19T04:39:08;101091.88;;;9.16;87.38
43820;BME280;67762;52.476;6.046;2023-03-19T04:41:35;101090.31;;;9.23;87.36
43820;BME280;67762;52.476;6.046;2023-03-19T04:44:23;101093.38;;;9.28;87.27
43820;BME280;67762;52.476;6.046;2023-03-19T04:47:07;101098.09;;;9.34;87.36
43820;BME280;67762;52.476;6.046;2023-03-19T04:50:06;101097.66;;;9.39;87.52
43820;BME280;67762;52.476;6.046;2023-03-19T04:52:33;101093.84;;;9.41;87.56
43820;BME280;67762;52.476;6.046;2023-03-19T04:55:02;101096.22;;;9.45;87.17
43820;BME280;67762;52.476;6.046;2023-03-19T04:57:32;101095.78;;;9.49;87.59
43820;BME280;67762;52.476;6.046;2023-03-19T08:15:30;101268.31;;;12.81;77.41
43820;BME280;67762;52.476;6.046;2023-03-19T08:17:57;101270.63;;;13.17;77.39
43820;BME280;67762;52.476;6.046;2023-03-19T08:20:23;101277.63;;;13.42;76.37
43820;BME280;67762;52.476;6.046;2023-03-19T08:22:49;101280.59;;;13.63;75.61
43820;BME280;67762;52.476;6.046;2023-03-19T08:25:15;101290.38;;;13.87;74.83
43820;BME280;67762;52.476;6.046;2023-03-19T08:27:41;101283.13;;;13.95;74.12
43820;BME280;67762;52.476;6.046;2023-03-19T08:30:08;101286.03;;;13.78;73.58
43820;BME280;67762;52.476;6.046;2023-03-19T08:32:35;101285.00;;;13.40;72.92
43820;BME280;67762;52.476;6.046;2023-03-19T08:35:01;101287.75;;;13.16;73.24
43820;BME280;67762;52.476;6.046;2023-03-19T08:37:27;101289.56;;;12.99;73.88
43820;BME280;67762;52.476;6.046;2023-03-19T08:39:52;101289.56;;;12.91;73.36
43820;BME280;67762;52.476;6.046;2023-03-19T08:42:19;101286.06;;;12.82;74.07
43820;BME280;67762;52.476;6.046;2023-03-19T08:44:45;101287.72;;;12.59;73.78
43820;BME280;67762;52.476;6.046;2023-03-19T08:47:11;101293.72;;;12.45;73.87
43820;BME280;67762;52.476;6.046;2023-03-19T08:49:37;101299.72;;;12.39;74.75
43820;BME280;67762;52.476;6.046;2023-03-19T08:52:03;101296.66;;;12.18;74.71
43820;BME280;67762;52.476;6.046;2023-03-19T08:54:29;101301.66;;;12.05;74.56
43820;BME280;67762;52.476;6.046;2023-03-19T08:56:55;101312.28;;;11.97;74.96
43820;BME280;67762;52.476;6.046;2023-03-19T08:59:20;101316.84;;;11.96;76.06
43820;BME280;67762;52.476;6.046;2023-03-19T09:01:50;101318.13;;;11.92;75.61
43820;BME280;67762;52.476;6.046;2023-03-19T09:04:16;101322.28;;;11.87;76.20
43820;BME280;67762;52.476;6.046;2023-03-19T09:06:42;101333.47;;;11.82;76.69
43820;BME280;67762;52.476;6.046;2023-03-19T09:09:07;101337.44;;;11.78;76.65
43820;BME280;67762;52.476;6.046;2023-03-19T09:11:33;101342.34;;;11.83;75.93
43820;BME280;67762;52.476;6.046;2023-03-19T09:13:59;101347.34;;;11.86;76.18
43820;BME280;67762;52.476;6.046;2023-03-19T09:16:24;101344.75;;;11.94;76.85
43820;BME280;67762;52.476;6.046;2023-03-19T09:18:50;101344.44;;;12.05;76.81
43820;BME280;67762;52.476;6.046;2023-03-19T09:21:16;101345.25;;;12.05;77.11
43820;BME280;67762;52.476;6.046;2023-03-19T09:23:42;101351.28;;;11.99;76.78
43820;BME280;67762;52.476;6.046;2023-03-19T09:26:08;101349.06;;;11.95;76.90
43820;BME280;67762;52.476;6.046;2023-03-19T09:28:34;101351.91;;;11.93;76.83
43820;BME280;67762;52.476;6.046;2023-03-19T09:31:00;101347.41;;;11.94;76.56
43820;BME280;67762;52.476;6.046;2023-03-19T09:33:31;101352.78;;;12.02;77.32
43820;BME280;67762;52.476;6.046;2023-03-19T09:35:57;101352.97;;;12.08;76.95
43820;BME280;67762;52.476;6.046;2023-03-19T09:38:23;101362.03;;;12.15;77.04
43820;BME280;67762;52.476;6.046;2023-03-19T09:41:03;101357.72;;;12.22;76.47
43820;BME280;67762;52.476;6.046;2023-03-19T09:45:58;101367.69;;;12.62;75.98
43820;BME280;67762;52.476;6.046;2023-03-19T09:48:45;101366.19;;;12.68;75.88
43820;BME280;67762;52.476;6.046;2023-03-19T09:51:18;101367.06;;;12.76;75.21
43820;BME280;67762;52.476;6.046;2023-03-19T09:53:54;101358.50;;;12.81;75.59
43820;BME280;67762;52.476;6.046;2023-03-19T09:56:23;101361.72;;;12.93;74.68
43820;BME280;67762;52.476;6.046;2023-03-19T09:58:49;101365.78;;;13.21;75.75
43820;BME280;67762;52.476;6.046;2023-03-19T10:01:24;101370.88;;;13.79;75.45
43820;BME280;67762;52.476;6.046;2023-03-19T10:06:40;101368.41;;;14.78;74.10
43820;BME280;67762;52.476;6.046;2023-03-19T10:12:19;101383.75;;;15.37;72.88
43820;BME280;67762;52.476;6.046;2023-03-19T10:15:08;101378.75;;;15.71;72.19
43820;BME280;67762;52.476;6.046;2023-03-19T10:17:42;101379.88;;;15.77;72.62
43820;BME280;67762;52.476;6.046;2023-03-19T10:20:22;101377.53;;;15.74;70.51
43820;BME280;67762;52.476;6.046;2023-03-19T10:22:56;101373.19;;;15.88;70.72
43820;BME280;67762;52.476;6.046;2023-03-19T10:25:28;101377.06;;;16.14;67.74
43820;BME280;67762;52.476;6.046;2023-03-19T10:28:10;101380.59;;;16.00;65.88
43820;BME280;67762;52.476;6.046;2023-03-19T10:30:38;101375.03;;;15.87;64.84
43820;BME280;67762;52.476;6.046;2023-03-19T10:35:43;101384.94;;;16.30;65.46
43820;BME280;67762;52.476;6.046;2023-03-19T10:38:28;101390.19;;;16.68;66.14
43820;BME280;67762;52.476;6.046;2023-03-19T10:41:25;101386.91;;;16.72;65.94
43820;BME280;67762;52.476;6.046;2023-03-19T10:43:58;101384.69;;;16.76;66.18
43820;BME280;67762;52.476;6.046;2023-03-19T10:46:24;101390.97;;;16.83;66.52
43820;BME280;67762;52.476;6.046;2023-03-19T10:48:50;101382.50;;;16.65;65.00
43820;BME280;67762;52.476;6.046;2023-03-19T10:51:20;101388.91;;;16.49;64.77
43820;BME280;67762;52.476;6.046;2023-03-19T10:53:47;101383.81;;;16.25;64.77
43820;BME280;67762;52.476;6.046;2023-03-19T10:56:21;101387.19;;;16.12;64.62
43820;BME280;67762;52.476;6.046;2023-03-19T10:59:00;101377.00;;;15.93;65.57
43820;BME280;67762;52.476;6.046;2023-03-19T11:01:38;101379.88;;;15.77;65.57
43820;BME280;67762;52.476;6.046;2023-03-19T11:04:16;101388.66;;;15.56;65.56
43820;BME280;67762;52.476;6.046;2023-03-19T11:06:50;101387.94;;;15.40;66.66
43820;BME280;67762;52.476;6.046;2023-03-19T11:09:26;101380.94;;;15.31;66.36
43820;BME280;67762;52.476;6.046;2023-03-19T11:11:57;101379.38;;;15.36;66.39
43820;BME280;67762;52.476;6.046;2023-03-19T11:14:26;101386.44;;;15.60;66.78
43820;BME280;67762;52.476;6.046;2023-03-19T11:17:13;101385.75;;;15.58;66.83
43820;BME280;67762;52.476;6.046;2023-03-19T11:19:47;101393.28;;;15.62;66.77
43820;BME280;67762;52.476;6.046;2023-03-19T11:22:20;101382.72;;;15.75;66.82
43820;BME280;67762;52.476;6.046;2023-03-19T11:24:49;101384.50;;;15.98;67.17
43820;BME280;67762;52.476;6.046;2023-03-19T11:27:17;101382.66;;;16.13;66.23
43820;BME280;67762;52.476;6.046;2023-03-19T11:29:44;101375.72;;;16.39;67.00
43820;BME280;67762;52.476;6.046;2023-03-19T11:32:39;101382.72;;;16.34;65.03
43820;BME280;67762;52.476;6.046;2023-03-19T11:35:29;101381.34;;;16.23;65.59
43820;BME280;67762;52.476;6.046;2023-03-19T11:38:01;101399.41;;;16.44;65.47
43820;BME280;67762;52.476;6.046;2023-03-19T11:48:43;101386.28;;;16.70;64.08
43820;BME280;67762;52.476;6.046;2023-03-19T11:54:05;101388.22;;;16.11;64.42
43820;BME280;67762;52.476;6.046;2023-03-19T11:59:15;101398.03;;;16.33;64.31
43820;BME280;67762;52.476;6.046;2023-03-19T12:10:30;101394.25;;;15.47;65.53
43820;BME280;67762;52.476;6.046;2023-03-19T12:13:18;101404.84;;;15.48;66.12
43820;BME280;67762;52.476;6.046;2023-03-19T12:18:38;101405.25;;;15.60;66.59
43820;BME280;67762;52.476;6.046;2023-03-19T12:21:35;101410.34;;;15.55;66.41
43820;BME280;67762;52.476;6.046;2023-03-19T12:24:41;101409.31;;;15.56;66.41
43820;BME280;67762;52.476;6.046;2023-03-19T12:30:29;101408.03;;;15.52;66.18
43820;BME280;67762;52.476;6.046;2023-03-19T12:32:43;101408.59;;;15.62;66.14
43820;BME280;67762;52.476;6.046;2023-03-19T12:35:26;101409.91;;;15.66;66.23
43820;BME280;67762;52.476;6.046;2023-03-19T12:38:02;101414.00;;;15.76;65.90
43820;BME280;67762;52.476;6.046;2023-03-19T12:40:46;101415.66;;;15.63;65.13
43820;BME280;67762;52.476;6.046;2023-03-19T12:43:27;101411.53;;;15.52;66.16
43820;BME280;67762;52.476;6.046;2023-03-19T12:46:16;101415.28;;;15.43;66.45
43820;BME280;67762;52.476;6.046;2023-03-19T12:48:51;101411.75;;;15.65;65.83
43820;BME280;67762;52.476;6.046;2023-03-19T12:51:24;101412.72;;;15.50;66.19
43820;BME280;67762;52.476;6.046;2023-03-19T12:53:58;101413.63;;;15.42;66.44
43820;BME280;67762;52.476;6.046;2023-03-19T12:56:33;101411.38;;;15.54;66.16
43820;BME280;67762;52.476;6.046;2023-03-19T12:59:12;101416.19;;;15.36;66.58
43820;BME280;67762;52.476;6.046;2023-03-19T13:01:43;101428.44;;;15.61;66.37
43820;BME280;67762;52.476;6.046;2023-03-19T13:04:23;101418.34;;;15.40;65.80
43820;BME280;67762;52.476;6.046;2023-03-19T13:07:04;101425.28;;;15.35;65.90
43820;BME280;67762;52.476;6.046;2023-03-19T13:09:39;101426.47;;;15.32;66.17
43820;BME280;67762;52.476;6.046;2023-03-19T13:12:28;101440.22;;;15.60;66.58
43820;BME280;67762;52.476;6.046;2023-03-19T13:20:41;101446.84;;;15.87;64.82
43820;BME280;67762;52.476;6.046;2023-03-19T13:23:18;101448.56;;;16.17;64.68
43820;BME280;67762;52.476;6.046;2023-03-19T13:25:47;101444.94;;;16.10;65.18
43820;BME280;67762;52.476;6.046;2023-03-19T13:28:26;101444.75;;;16.11;64.90
43820;BME280;67762;52.476;6.046;2023-03-19T13:31:04;101441.94;;;15.90;64.99
43820;BME280;67762;52.476;6.046;2023-03-19T13:33:30;101441.41;;;16.09;64.45
43820;BME280;67762;52.476;6.046;2023-03-19T13:36:00;101437.22;;;16.07;64.55
43820;BME280;67762;52.476;6.046;2023-03-19T13:38:44;101444.09;;;15.95;64.54
43820;BME280;67762;52.476;6.046;2023-03-19T13:44:17;101456.34;;;15.83;64.21
43820;BME280;67762;52.476;6.046;2023-03-19T13:46:44;101454.09;;;15.71;64.04
43820;BME280;67762;52.476;6.046;2023-03-19T13:51:50;101455.47;;;15.67;64.21
43820;BME280;67762;52.476;6.046;2023-03-19T13:54:19;101461.97;;;15.73;64.29
43820;BME280;67762;52.476;6.046;2023-03-19T13:59:37;101452.34;;;15.56;63.99
43820;BME280;67762;52.476;6.046;2023-03-19T14:05:01;101453.13;;;15.19;64.19
43820;BME280;67762;52.476;6.046;2023-03-19T14:07:39;101453.94;;;14.97;65.18
43820;BME280;67762;52.476;6.046;2023-03-19T14:10:20;101456.66;;;14.89;64.67
43820;BME280;67762;52.476;6.046;2023-03-19T14:12:47;101456.19;;;14.54;65.30
43820;BME280;67762;52.476;6.046;2023-03-19T14:15:15;101455.00;;;14.57;65.79
43820;BME280;67762;52.476;6.046;2023-03-19T14:17:44;101458.50;;;14.66;66.03
43820;BME280;67762;52.476;6.046;2023-03-19T14:23:02;101461.28;;;14.72;65.42
43820;BME280;67762;52.476;6.046;2023-03-19T14:28:49;101454.28;;;14.32;65.97
43820;BME280;67762;52.476;6.046;2023-03-19T14:31:27;101458.72;;;14.48;65.80
43820;BME280;67762;52.476;6.046;2023-03-19T14:36:49;101465.75;;;14.57;65.94
43820;BME280;67762;52.476;6.046;2023-03-19T14:39:21;101470.00;;;14.43;65.63
43820;BME280;67762;52.476;6.046;2023-03-19T14:41:51;101470.84;;;14.36;65.52
43820;BME280;67762;52.476;6.046;2023-03-19T14:47:41;101481.94;;;14.41;65.22
43820;BME280;67762;52.476;6.046;2023-03-19T14:53:17;101503.41;;;14.17;65.72
43820;BME280;67762;52.476;6.046;2023-03-19T14:55:48;101507.84;;;13.93;65.93
43820;BME280;67762;52.476;6.046;2023-03-19T14:58:15;101512.03;;;13.88;66.54
43820;BME280;67762;52.476;6.046;2023-03-19T15:00:46;101518.88;;;13.58;66.82
43820;BME280;67762;52.476;6.046;2023-03-19T15:03:34;101507.81;;;13.29;66.99
43820;BME280;67762;52.476;6.046;2023-03-19T15:06:03;101505.59;;;13.16;67.59
43820;BME280;67762;52.476;6.046;2023-03-19T15:08:31;101499.44;;;13.16;67.52
43820;BME280;67762;52.476;6.046;2023-03-19T15:18:49;101523.06;;;12.86;68.82
43820;BME280;67762;52.476;6.046;2023-03-19T15:21:15;101523.84;;;12.71;69.04
43820;BME280;67762;52.476;6.046;2023-03-19T15:23:44;101519.28;;;12.63;69.13
43820;BME280;67762;52.476;6.046;2023-03-19T15:26:10;101509.88;;;12.51;70.00
43820;BME280;67762;52.476;6.046;2023-03-19T15:28:45;101508.19;;;12.50;69.32
43820;BME280;67762;52.476;6.046;2023-03-19T15:31:12;101508.00;;;12.44;70.38
43820;BME280;67762;52.476;6.046;2023-03-19T15:33:39;101499.13;;;12.43;70.60
43820;BME280;67762;52.476;6.046;2023-03-19T15:38:44;101498.28;;;12.43;70.02
43820;BME280;67762;52.476;6.046;2023-03-19T15:41:11;101498.28;;;12.43;70.22
43820;BME280;67762;52.476;6.046;2023-03-19T15:43:38;101501.47;;;12.38;70.34
43820;BME280;67762;52.476;6.046;2023-03-19T15:46:14;101498.53;;;12.23;70.22
43820;BME280;67762;52.476;6.046;2023-03-19T15:48:46;101515.88;;;12.19;70.78
43820;BME280;67762;52.476;6.046;2023-03-19T15:51:15;101525.06;;;12.17;70.00
43820;BME280;67762;52.476;6.046;2023-03-19T15:53:42;101523.72;;;12.13;70.32
43820;BME280;67762;52.476;6.046;2023-03-19T15:56:12;101522.69;;;12.14;70.68
43820;BME280;67762;52.476;6.046;2023-03-19T15:58:41;101529.69;;;12.07;70.29
43820;BME280;67762;52.476;6.046;2023-03-19T16:01:10;101538.88;;;12.04;71.67
43820;BME280;67762;52.476;6.046;2023-03-19T16:03:39;101543.84;;;11.99;71.56
43820;BME280;67762;52.476;6.046;2023-03-19T16:06:35;101542.31;;;11.97;71.80
43820;BME280;67762;52.476;6.046;2023-03-19T16:09:24;101539.56;;;11.89;71.72
43820;BME280;67762;52.476;6.046;2023-03-19T16:11:51;101534.88;;;11.83;71.68
43820;BME280;67762;52.476;6.046;2023-03-19T16:14:42;101540.13;;;11.74;71.79
43820;BME280;67762;52.476;6.046;2023-03-19T16:17:39;101541.44;;;11.70;72.26
43820;BME280;67762;52.476;6.046;2023-03-19T16:20:13;101544.09;;;11.70;73.30
43820;BME280;67762;52.476;6.046;2023-03-19T16:22:55;101544.25;;;11.69;72.62
43820;BME280;67762;52.476;6.046;2023-03-19T16:25:30;101548.22;;;11.65;72.83
43820;BME280;67762;52.476;6.046;2023-03-19T16:28:04;101548.88;;;11.67;72.28
43820;BME280;67762;52.476;6.046;2023-03-19T16:30:45;101555.06;;;11.67;72.64
43820;BME280;67762;52.476;6.046;2023-03-19T16:33:17;101556.50;;;11.71;72.30
43820;BME280;67762;52.476;6.046;2023-03-19T16:35:53;101555.78;;;11.69;72.66
43820;BME280;67762;52.476;6.046;2023-03-19T16:38:23;101556.75;;;11.68;72.44
43820;BME280;67762;52.476;6.046;2023-03-19T16:41:39;101561.25;;;11.68;72.64
43820;BME280;67762;52.476;6.046;2023-03-19T16:44:17;101558.53;;;11.60;72.78
43820;BME280;67762;52.476;6.046;2023-03-19T16:46:43;101569.72;;;11.63;72.79
43820;BME280;67762;52.476;6.046;2023-03-19T16:49:09;101570.19;;;11.59;73.02
43820;BME280;67762;52.476;6.046;2023-03-19T16:51:36;101569.66;;;11.55;72.83
43820;BME280;67762;52.476;6.046;2023-03-19T16:54:02;101572.63;;;11.52;73.08
43820;BME280;67762;52.476;6.046;2023-03-19T16:56:28;101567.75;;;11.48;73.67
43820;BME280;67762;52.476;6.046;2023-03-19T16:58:55;101582.94;;;11.47;73.35
43820;BME280;67762;52.476;6.046;2023-03-19T17:01:23;101569.88;;;11.44;73.52
43820;BME280;67762;52.476;6.046;2023-03-19T17:03:50;101579.03;;;11.42;73.95
43820;BME280;67762;52.476;6.046;2023-03-19T17:06:17;101583.69;;;11.40;74.00
43820;BME280;67762;52.476;6.046;2023-03-19T17:08:43;101590.50;;;11.34;73.92
43820;BME280;67762;52.476;6.046;2023-03-19T17:11:30;101593.75;;;11.28;73.26
43820;BME280;67762;52.476;6.046;2023-03-19T17:13:59;101602.22;;;11.24;73.88
43820;BME280;67762;52.476;6.046;2023-03-19T17:16:27;101598.47;;;11.16;73.13
43820;BME280;67762;52.476;6.046;2023-03-19T17:18:53;101603.88;;;11.07;73.41
43820;BME280;67762;52.476;6.046;2023-03-19T17:21:27;101607.81;;;11.03;73.54
43820;BME280;67762;52.476;6.046;2023-03-19T17:23:55;101615.97;;;11.01;73.50
43820;BME280;67762;52.476;6.046;2023-03-19T17:26:24;101619.50;;;11.02;74.04
43820;BME280;67762;52.476;6.046;2023-03-19T17:28:50;101629.19;;;11.03;74.72
43820;BME280;67762;52.476;6.046;2023-03-19T17:31:22;101629.91;;;11.05;74.42
43820;BME280;67762;52.476;6.046;2023-03-19T17:33:48;101637.06;;;11.04;73.62
43820;BME280;67762;52.476;6.046;2023-03-19T17:36:14;101645.75;;;11.06;73.99
43820;BME280;67762;52.476;6.046;2023-03-19T17:38:40;101637.91;;;11.05;74.50
43820;BME280;67762;52.476;6.046;2023-03-19T17:41:14;101646.91;;;11.04;74.87
43820;BME280;67762;52.476;6.046;2023-03-19T17:43:41;101657.56;;;11.04;75.08
43820;BME280;67762;52.476;6.046;2023-03-19T17:46:11;101660.69;;;10.99;74.44
43820;BME280;67762;52.476;6.046;2023-03-19T17:48:39;101662.53;;;10.99;74.64
43820;BME280;67762;52.476;6.046;2023-03-19T17:51:05;101661.81;;;10.97;74.77
43820;BME280;67762;52.476;6.046;2023-03-19T17:53:30;101660.44;;;10.93;75.40
43820;BME280;67762;52.476;6.046;2023-03-19T17:55:56;101673.09;;;10.91;75.98